Tiempo atmosférico en la estación meteorológica de Alconchel, Badajoz (170 m.)



Fecha
DESCASC
Temp. máxima en grados centígrados (hora)
DESCASC
Temp. mínima en grados centígrados (hora)
DESCASC
Temp. media en grados centígrados
DESCASC
Racha de viento máxima en m/sg (hora)
DESCASC
Velocidad máxima media en intervalos de 10 minutos(hora)
DESCASC
Precipitaciones diarias en mm
DESCASC
Precipitaciones de 00:00 a 06:00 en mm
DESCASC
Precipitaciones de 06:00 a 12:00 en mm
DESCASC
Precipitaciones de 12:00 a 18:00 en mm
DESCASC
Precipitaciones de 18:00 a 24:00 en mm
DESCASC
28-02-2021 17.8 (17:00) 0 (07:50) 8.9 5.28 (13:30) -- (--) -- 0 -- 0 0
27-02-2021 17.1 (16:40) 7.1 (08:40) 12.1 5.83 (17:20) 3.61 (17:20) 0 0 0 0 0
26-02-2021 18 (15:50) 10.4 (04:30) 14.2 6.67 (13:40) 4.17 (13:40) 1.4 0 1.4 0 0
25-02-2021 15.4 (15:20) 10.2 (00:00) 12.8 5 (19:50) 3.61 (20:20) 2 0 0 0 2
24-02-2021 19.2 (16:10) 6.3 (00:00) 12.8 8.61 (12:40) 6.11 (12:30) 0 0 0 0 0
23-02-2021 18.7 (16:20) 6.1 (00:00) 12.4 6.94 (15:00) 4.17 (17:30) 0 0 0 0 0
22-02-2021 15.9 (16:30) 3.7 (00:00) 9.8 5 (13:30) 3.61 (13:30) 0 0 0 0 0
21-02-2021 14.9 (02:00) 6.9 (00:00) 10.9 19.17 (03:40) 13.33 (03:50) 5.6 0.2 5.4 0 0
20-02-2021 17.4 (15:50) 10.1 (00:00) 13.8 15.83 (14:50) 11.11 (15:10) 0 0 0 0 0
19-02-2021 16.3 (16:40) 8.6 (00:00) 12.4 10.28 (12:20) 7.78 (13:00) 0 0 0 0 0
18-02-2021 18.6 (16:40) 9.5 (00:00) 14.1 6.39 (16:20) 4.72 (16:20) 0 0 0 0 0
17-02-2021 17.3 (16:30) 6.3 (00:00) 11.8 4.17 (15:20) 3.06 (15:20) 0 0 0 0 0
16-02-2021 17.7 (16:50) 6.2 (00:00) 12 4.17 (00:20) 3.06 (17:20) 0 0 0 0 0
15-02-2021 21 (16:40) 5.6 (00:00) 13.3 6.39 (16:30) 4.72 (16:30) 0 0 0 0 0
14-02-2021 20.1 (16:30) 4.9 (00:00) 12.5 4.72 (13:30) 3.06 (18:00) 0 0 0 0 0
13-02-2021 17.5 (17:20) 6.5 (00:00) 12 5 (19:40) 3.89 (19:40) 0 0 0 0 0
12-02-2021 17.7 (16:20) 9.2 (00:00) 13.5 7.5 (03:50) 5.28 (01:00) 1.4 1.4 0 0 0
11-02-2021 15.8 (15:20) 12.8 (00:00) 14.3 8.33 (19:10) 5.56 (19:10) 0.2 0 0 0 0.2
10-02-2021 14.6 (17:30) 10.9 (00:00) 12.8 9.17 (00:10) 6.67 (04:30) 8.6 4.6 3.4 0.4 0.2
09-02-2021 14 (17:10) 10.3 (00:00) 12.2 16.39 (13:30) 10.83 (11:30) 10.8 0.8 4.2 5.6 0.2
08-02-2021 14.7 (15:10) 9.6 (00:00) 12.2 15.28 (14:10) 10 (14:10) 6.2 4.6 1.6 0 0
07-02-2021 11.3 (14:00) 5.1 (00:00) 8.2 11.67 (23:30) 8.33 (23:20) 0.2 0 0 0 0.2
06-02-2021 11.4 (13:00) 9.1 (00:00) 10.3 8.89 (14:20) 5.83 (14:20) 2 0.8 0.8 0.2 0.2
05-02-2021 11.4 (18:00) 9.8 (00:00) 10.6 9.72 (18:20) 6.39 (18:50) 33.4 4 18.2 11.2 0
04-02-2021 11.9 (14:20) 9.6 (00:00) 10.8 6.94 (22:10) 4.72 (12:00) 42.8 0.8 32.6 4.2 5.2
03-02-2021 14.9 (14:30) 11.4 (00:00) 13.1 11.67 (14:40) 7.78 (14:10) 3.6 0 0.2 1 2.4
02-02-2021 15.2 (15:00) 11.8 (00:00) 13.5 6.11 (13:40) 4.72 (13:40) 0.4 0 0.4 0 0
01-02-2021 15.4 (14:50) 11.9 (00:00) 13.6 7.22 (14:30) 4.72 (14:30) 0 0 0 0 0

Gráficas

Temp. máximas Temp. mínimas Temp. medias Precipitaciones Rachas de viento máximas Velocidades máximas media en intervalos de 10 minutos

Datos horarios

Fecha y hora oficial Temperatura (ºC) Velocidad del viento (km/h) Dirección del viento Racha (km/h) Dirección de racha Precipitación (mm) Presión (hPa) Tendencia (hPa) Humedad (%)
2021-03-02 23:00:00 12.1 9 Nordeste 17 Norte 0 -- -- 87
2021-03-02 22:00:00 13.1 12 Norte 15 Norte 0 -- -- 85
2021-03-02 21:00:00 14.1 9 Nordeste 11 Nordeste 0 -- -- 80
2021-03-02 20:00:00 15.4 8 Norte 10 Nordeste 0 -- -- 75
2021-03-02 19:00:00 17.5 5 Nordeste 16 Norte 0 -- -- 64
2021-03-02 18:00:00 18.1 10 Norte 18 Norte 0 -- -- 61
2021-03-02 17:00:00 18.5 8 Norte 19 Norte 0 -- -- 59
2021-03-02 16:00:00 18.1 10 Nordeste 18 Nordeste 0 -- -- 58
2021-03-02 15:00:00 17.8 8 Norte 16 Norte 0 -- -- 67
2021-03-02 14:00:00 16.9 8 Norte 19 Norte 0 -- -- 66
2021-03-02 13:00:00 16.2 10 Nordeste 17 Norte 0 -- -- 73
2021-03-02 12:00:00 14.8 7 Norte 14 Norte 0 -- -- 85
2021-03-02 11:00:00 13.1 6 Nordeste 15 Norte 0 -- -- 87
2021-03-02 10:00:00 11.1 6 Norte 10 Norte 0 -- -- 98
2021-03-02 09:00:00 9.5 0 Calma 8 Nordeste 0 -- -- 98
2021-03-02 08:00:00 8.9 3 Este 6 Este 0 -- -- 98
2021-03-02 07:00:00 8.9 0 Calma 6 Nordeste 0 -- -- 98
2021-03-02 06:00:00 8.9 0 Calma 2 Sudeste 0 -- -- 98
2021-03-02 05:00:00 8.3 3 Este 6 Sur 0 -- -- 97
2021-03-02 04:00:00 8.7 0 Calma 4 Noroeste 0 -- -- 96
2021-03-02 03:00:00 8.7 4 Este 7 Sudeste 0 -- -- 96
2021-03-02 02:00:00 9.1 4 Sudeste 9 Norte 0 -- -- 95
2021-03-02 01:00:00 9.4 4 Nordeste 7 Sudeste 0 -- -- 94
2021-03-02 00:00:00 10.4 0 Calma 6 Noroeste 0 -- -- 92
2021-03-01 23:00:00 10.9 0 Calma 6 Sudeste 0 -- -- 93
2021-03-01 22:00:00 11.3 4 Nordeste 6 Nordeste 0 -- -- 91
2021-03-01 21:00:00 12.2 4 Este 12 Este 0 -- -- 87
2021-03-01 20:00:00 13.2 4 Este 14 Este 0 -- -- 81
2021-03-01 19:00:00 14.6 10 Este 30 Este 0 -- -- 73
2021-03-01 18:00:00 17.4 11 Este 15 Este 0 -- -- 62
2021-03-01 17:00:00 17.5 7 Nordeste 18 Este 0 -- -- 62
2021-03-01 16:00:00 18.2 5 Norte 10 Norte 0 -- -- 60
2021-03-01 15:00:00 18.2 7 Oeste 13 Sudoeste 0 -- -- 64
2021-03-01 14:00:00 16.2 6 Sudoeste 16 Sur 0 -- -- 67
2021-03-01 13:00:00 16.6 8 Sur 13 Sur 0 -- -- 70
2021-03-01 12:00:00 15.4 5 Sur 9 Sur 0 -- -- 73
2021-03-01 11:00:00 13.5 4 Nordeste 12 Norte 0 -- -- 86
2021-03-01 10:00:00 11.6 4 Noroeste 6 Noroeste 0 -- -- 91
2021-03-01 09:00:00 9.8 0 Calma 10 Nordeste 0 -- -- 92
2021-03-01 08:00:00 10.3 7 Nordeste 12 Nordeste 0 -- -- 91
2021-03-01 07:00:00 10.2 0 Calma 11 Nordeste 0 -- -- 92
2021-03-01 06:00:00 10.4 5 Nordeste 12 Nordeste 0 -- -- 89
2021-03-01 05:00:00 10 4 Nordeste 6 Nordeste 0 -- -- 90
2021-03-01 04:00:00 10.1 3 Este 12 Este 0 -- -- 87
2021-03-01 03:00:00 10.2 0 Calma 4 Sudeste 0 -- -- 87
2021-03-01 02:00:00 10.6 4 Sudeste 6 Este 0 -- -- 84
2021-03-01 01:00:00 10.4 0 Calma 8 Sudeste 0 -- -- 87
2021-03-01 00:00:00 11.1 0 Calma 10 Este 0 -- -- 85
2021-02-28 23:00:00 12.3 8 Este 10 Este 0 -- -- 82
2021-02-28 22:00:00 13.3 3 Nordeste 10 Este 0 -- -- 80
2021-02-28 21:00:00 13.9 8 Sudeste 12 Este 0 -- -- 74
2021-02-28 20:00:00 14.7 0 Calma 6 Sudoeste 0 -- -- 68
2021-02-28 19:00:00 16 5 Sudoeste 13 Sudoeste 0 -- -- 67
2021-02-28 18:00:00 17.1 9 Sudoeste 12 Sudoeste 0 -- -- 63
2021-02-28 17:00:00 17.8 6 Oeste 13 Sudoeste 0 -- -- 64
2021-02-28 16:00:00 17.5 11 Oeste 15 Oeste 0 -- -- 64
2021-02-28 15:00:00 17.4 9 Oeste 18 Sudoeste 0 -- -- 67
2021-02-28 14:00:00 17 11 Sur 19 Sudoeste 0 -- -- 67
2021-02-28 13:00:00 16.2 11 Sur 18 Sur 0 -- -- 63
2021-02-28 12:00:00 15 6 Sudoeste 10 Sudoeste 0 -- -- 76
2021-02-28 11:00:00 12.3 2 Sudoeste 8 Sur 0 -- -- 87
2021-02-28 10:00:00 9.8 3 Nordeste 9 Nordeste 0 -- -- 91
2021-02-28 09:00:00 7.6 0 Calma 15 Nordeste 0 -- -- 98
2021-02-28 08:00:00 -- 6 Norte -- -- -- -- -- --
2021-02-28 07:00:00 8.2 0 Calma 6 Este 0 -- -- 97
2021-02-28 06:00:00 8.3 3 Sudeste 7 Este 0 -- -- 95
2021-02-28 05:00:00 8.7 3 Este 7 Nordeste 0 -- -- 96
2021-02-28 04:00:00 9 4 Nordeste 12 Sudeste 0 -- -- 94
2021-02-28 03:00:00 9.6 8 Sudeste 11 Este 0 -- -- 91
2021-02-28 02:00:00 9.3 3 Este 5 Este 0 -- -- 83
2021-02-28 01:00:00 10.1 3 Noroeste 14 Este 0 -- -- 81
2021-02-28 00:00:00 11 3 Nordeste 7 Sudeste 0 -- -- 77
2021-02-27 23:00:00 12.1 4 Sudeste 17 Nordeste 0 -- -- 71
2021-02-27 22:00:00 11.8 4 Norte 9 Este 0 -- -- 74
2021-02-27 21:00:00 13.2 7 Nordeste 13 Norte 0 -- -- 69
2021-02-27 20:00:00 13.4 10 Nordeste 15 Nordeste 0 -- -- 69
2021-02-27 19:00:00 15 5 Nordeste 14 Este 0 -- -- 61
2021-02-27 18:00:00 16.5 7 Nordeste 21 Norte 0 -- -- 63
2021-02-27 17:00:00 17.1 5 Norte 14 Norte 0 -- -- 69
2021-02-27 16:00:00 17 10 Norte 18 Norte 0 -- -- 69
2021-02-27 15:00:00 16.5 8 Norte 17 Norte 0 -- -- 74
2021-02-27 14:00:00 15.5 10 Norte 15 Norte 0 -- -- 77
2021-02-27 13:00:00 16 8 Norte 15 Norte 0 -- -- 75
2021-02-27 12:00:00 14.6 8 Norte 15 Nordeste 0 -- -- 83
2021-02-27 11:00:00 11.8 8 Nordeste 12 Nordeste 0 -- -- 91
2021-02-27 10:00:00 10.2 4 Nordeste 12 Nordeste 0 -- -- 94
2021-02-27 09:00:00 7.8 4 Norte 7 Norte 0 -- -- 99
2021-02-27 08:00:00 7.8 2 Sudoeste 10 Nordeste 0 -- -- 95
2021-02-27 07:00:00 8.2 9 Nordeste 10 Nordeste 0 -- -- 97
2021-02-27 06:00:00 8.3 0 Calma 7 Nordeste 0 -- -- 96
2021-02-27 05:00:00 8.7 0 Calma 4 Norte 0 -- -- 95
2021-02-27 04:00:00 9.2 0 Calma 8 Nordeste 0 -- -- 96
2021-02-27 03:00:00 9.8 3 Noroeste 5 Norte 0 -- -- 93
2021-02-27 02:00:00 10.9 4 Nordeste 8 Nordeste 0 -- -- 91
2021-02-27 01:00:00 11.5 0 Calma 11 Nordeste 0 -- -- 89
2021-02-27 00:00:00 12.1 7 Norte 13 Norte 0 -- -- 88
2021-02-26 23:00:00 13 9 Norte 15 Nordeste 0 -- -- 84
2021-02-26 22:00:00 13.2 10 Norte 14 Nordeste 0 -- -- 83
2021-02-26 21:00:00 13.7 11 Nordeste 15 Nordeste 0 -- -- 80
2021-02-26 20:00:00 14.7 10 Nordeste 21 Nordeste 0 -- -- 76
2021-02-26 19:00:00 15.7 14 Nordeste 20 Nordeste 0 -- -- 73
2021-02-26 18:00:00 16.6 11 Norte 19 Nordeste 0 -- -- 72
2021-02-26 17:00:00 17.6 7 Nordeste 18 Nordeste 0 -- -- 69
2021-02-26 16:00:00 18 8 Sur 21 Este 0 -- -- 65
2021-02-26 15:00:00 17.6 12 Nordeste 22 Nordeste 0 -- -- 71
2021-02-26 14:00:00 16.7 12 Nordeste 24 Nordeste 0 -- -- 72
2021-02-26 13:00:00 14.4 15 Nordeste 23 Nordeste 0 -- -- 88
2021-02-26 12:00:00 14 10 Nordeste 16 Nordeste 0 -- -- 88
2021-02-26 11:00:00 12.9 10 Nordeste 14 Nordeste 0 -- -- 95
2021-02-26 10:00:00 11.1 9 Nordeste 15 Nordeste 0.4 -- -- 98
2021-02-26 09:00:00 10.7 5 Este 13 Este 0.6 -- -- 97
2021-02-26 08:00:00 10.7 9 Nordeste 14 Este 0.4 -- -- 96
2021-02-26 07:00:00 10.4 4 Este 8 Este 0 -- -- 97
2021-02-26 06:00:00 10.4 3 Este 10 Nordeste 0 -- -- 96
2021-02-26 05:00:00 10.4 6 Nordeste 14 Nordeste 0 -- -- 96
2021-02-26 04:00:00 10.7 2 Este 14 Nordeste 0 -- -- 96
2021-02-26 03:00:00 11.2 9 Nordeste 17 Nordeste 0 -- -- 97
2021-02-26 02:00:00 11.3 9 Norte 13 Norte 0 -- -- 97
2021-02-26 01:00:00 11.5 6 Norte 11 Norte 0 -- -- 97
2021-02-26 00:00:00 11.6 7 Norte 12 Norte 0 -- -- 97
2021-02-25 23:00:00 11.9 8 Norte 11 Norte 0.6 -- -- 97
2021-02-25 22:00:00 12.4 0 Calma 10 Nordeste 1 -- -- 95
2021-02-25 21:00:00 12.8 5 Nordeste 18 Norte 0.4 -- -- 92
2021-02-25 20:00:00 13.1 12 Norte 18 Norte 0 -- -- 91
2021-02-25 19:00:00 13.6 10 Norte 15 Norte 0 -- -- 87
2021-02-25 18:00:00 14.4 8 Norte 15 Nordeste 0 -- -- 83
2021-02-25 17:00:00 14.9 4 Norte 9 Oeste 0 -- -- 81
2021-02-25 16:00:00 15.1 3 Norte 9 Oeste 0 -- -- 75
2021-02-25 15:00:00 15.2 5 Noroeste 10 Oeste 0 -- -- 77
2021-02-25 14:00:00 15.2 5 Noroeste 10 Noroeste 0 -- -- 76
2021-02-25 13:00:00 14.3 4 Noroeste 8 Noroeste 0 -- -- 80
2021-02-25 12:00:00 12.9 0 Calma 7 Sudeste 0 -- -- 82
2021-02-25 11:00:00 12 5 Sudeste 11 Sudeste 0 -- -- 83
2021-02-25 10:00:00 11.5 5 Sudeste 15 Sudeste 0 -- -- 83
2021-02-25 09:00:00 11.1 8 Sudeste 12 Este 0 -- -- 83
2021-02-25 08:00:00 10.9 9 Sudeste 13 Este 0 -- -- 84
2021-02-25 07:00:00 10.7 8 Sudeste 11 Este 0 -- -- 88
2021-02-25 06:00:00 10.7 6 Este 9 Este 0 -- -- 88
2021-02-25 05:00:00 10.7 3 Sur 6 Sudoeste 0 -- -- 90
2021-02-25 04:00:00 10.3 3 Sur 6 Sudeste 0 -- -- 90
2021-02-25 03:00:00 10.3 4 Noroeste 6 Oeste 0 -- -- 90
2021-02-25 02:00:00 10.7 0 Calma 9 Sudeste 0 -- -- 86
2021-02-25 01:00:00 11.7 6 Sudeste 14 Sudeste 0 -- -- 83
2021-02-25 00:00:00 12.5 6 Sudeste 13 Sur 0 -- -- 83
2021-02-24 23:00:00 13 0 Calma 18 Oeste 0 -- -- 82
2021-02-24 22:00:00 13.8 4 Sudeste 14 Sudeste 0 -- -- 76
2021-02-24 21:00:00 15 7 Sudeste 15 Sur 0 -- -- 72
2021-02-24 20:00:00 16.1 5 Sudeste 14 Sudeste 0 -- -- 66
2021-02-24 19:00:00 18 0 Calma 6 Oeste 0 -- -- 59
2021-02-24 18:00:00 18.7 4 Noroeste 10 Oeste 0 -- -- 58
2021-02-24 17:00:00 19.1 8 Oeste 14 Oeste 0 -- -- 58
2021-02-24 16:00:00 19 6 Oeste 16 Oeste 0 -- -- 60
2021-02-24 15:00:00 18.8 9 Sur 23 Sur 0 -- -- 59
2021-02-24 14:00:00 18.2 12 Sudoeste 30 Sur 0 -- -- 60
2021-02-24 13:00:00 17.5 18 Sur 31 Sur 0 -- -- 60
2021-02-24 12:00:00 15.6 7 Sur 12 Sur 0 -- -- 72
2021-02-24 11:00:00 12.5 5 Norte 10 Norte 0 -- -- 82
2021-02-24 10:00:00 9.5 5 Nordeste 8 Nordeste 0 -- -- 84
2021-02-24 09:00:00 6.8 0 Calma 10 Norte 0 -- -- 88
2021-02-24 08:00:00 7.3 2 Norte 9 Este 0 -- -- 84
2021-02-24 07:00:00 8.4 5 Este 15 Este 0 -- -- 80
2021-02-24 06:00:00 8.2 10 Este 21 Este 0 -- -- 79
2021-02-24 05:00:00 7.8 10 Este 16 Este 0 -- -- 81
2021-02-24 04:00:00 7.6 4 Este 12 Sudeste 0 -- -- 79
2021-02-24 03:00:00 8.2 9 Este 13 Este 0 -- -- 77
2021-02-24 02:00:00 8.1 4 Sudeste 12 Sudeste 0 -- -- 78
2021-02-24 01:00:00 8.8 9 Este 13 Este 0 -- -- 73
2021-02-24 00:00:00 9.4 5 Este 14 Sudeste 0 -- -- 71
2021-02-23 23:00:00 10.2 9 Este 13 Sudeste 0 -- -- 67
2021-02-23 22:00:00 11.1 6 Sudeste 12 Sudeste 0 -- -- 63
2021-02-23 21:00:00 12.6 8 Sudeste 10 Sudeste 0 -- -- 57
2021-02-23 20:00:00 14.4 9 Sudeste 13 Sudeste 0 -- -- 51
2021-02-23 19:00:00 16.2 7 Sur 17 Sur 0 -- -- 45
2021-02-23 18:00:00 17.8 14 Sur 22 Sur 0 -- -- 41
2021-02-23 17:00:00 18.5 14 Sur 23 Sur 0 -- -- 43
2021-02-23 16:00:00 18.5 12 Sur 20 Sur 0 -- -- 50
2021-02-23 15:00:00 18.2 13 Sur 25 Sur 0 -- -- 51
2021-02-23 14:00:00 17.6 12 Sur 21 Sudeste 0 -- -- 53
2021-02-23 13:00:00 16.6 14 Sudeste 23 Sudeste 0 -- -- 51
2021-02-23 12:00:00 14.9 4 Oeste 10 Norte 0 -- -- 77
2021-02-23 11:00:00 12.9 3 Sudeste 9 Nordeste 0 -- -- 81
2021-02-23 10:00:00 9.5 4 Nordeste 9 Nordeste 0 -- -- 90
2021-02-23 09:00:00 7.3 4 Nordeste 9 Nordeste 0 -- -- 96
2021-02-23 08:00:00 6.1 7 Nordeste 10 Nordeste 0 -- -- 97
2021-02-23 07:00:00 6.9 4 Nordeste 6 Nordeste 0 -- -- 94
2021-02-23 06:00:00 7.9 0 Calma 15 Este 0 -- -- 92
2021-02-23 05:00:00 8.1 9 Sudeste 15 Sudeste 0 -- -- 92
2021-02-23 04:00:00 8.5 11 Sudeste 15 Este 0 -- -- 91
2021-02-23 03:00:00 8.3 9 Este 12 Sudeste 0 -- -- 92
2021-02-23 02:00:00 8.3 6 Este 9 Este 0 -- -- 91
2021-02-23 01:00:00 8.6 0 Calma 14 Sudeste 0 -- -- 89
2021-02-23 00:00:00 9.9 8 Sudeste 16 Sur 0 -- -- 86
2021-02-22 23:00:00 10.1 6 Sudeste 18 Sur 0 -- -- 85
2021-02-22 22:00:00 11.2 6 Sur 12 Sur 0 -- -- 80
2021-02-22 21:00:00 11.6 7 Sudeste 12 Sur 0 -- -- 72
2021-02-22 20:00:00 12.8 6 Sudeste 9 Sur 0 -- -- 67
2021-02-22 19:00:00 14.3 6 Sur 10 Sur 0 -- -- 64
2021-02-22 18:00:00 15.9 4 Sudoeste 14 Oeste 0 -- -- 59
2021-02-22 17:00:00 15.7 11 Sudoeste 15 Sudoeste 0 -- -- 59
2021-02-22 16:00:00 15.6 8 Sudoeste 18 Sudoeste 0 -- -- 62
2021-02-22 15:00:00 14.7 10 Sudoeste 17 Sudoeste 0 -- -- 64
2021-02-22 14:00:00 13.2 11 Sudoeste 18 Sudoeste 0 -- -- 68
2021-02-22 13:00:00 12.9 8 Sudoeste 14 Oeste 0 -- -- 75
2021-02-22 12:00:00 11.4 8 Sudoeste 15 Sudoeste 0 -- -- 81
2021-02-22 11:00:00 9.9 6 Sur 13 Sudoeste 0 -- -- 86
2021-02-22 10:00:00 7.4 4 Sudoeste 9 Sur 0 -- -- 94
2021-02-22 09:00:00 5 6 Sudeste 12 Sudeste 0 -- -- 97
2021-02-22 08:00:00 3.8 8 Sudeste 10 Sudeste 0 -- -- 96
2021-02-22 07:00:00 4.1 8 Sudeste 9 Sudeste 0 -- -- 97
2021-02-22 06:00:00 4.4 6 Sudeste 9 Sudeste 0 -- -- 96
2021-02-22 05:00:00 4.5 8 Sudeste 9 Sudeste 0 -- -- 95
2021-02-22 04:00:00 5.3 4 Sur 6 Sur 0 -- -- 94
2021-02-22 03:00:00 6.4 2 Sur 6 Oeste 0 -- -- 93
2021-02-22 02:00:00 6.4 4 Noroeste 11 Noroeste 0 -- -- 92
2021-02-22 01:00:00 6.9 8 Noroeste 14 Oeste 0 -- -- 92
2021-02-22 00:00:00 6.9 7 Noroeste 11 Noroeste 0 -- -- 90
2021-02-21 23:00:00 7.6 6 Noroeste 15 Noroeste 0 -- -- 87
2021-02-21 22:00:00 8.2 8 Noroeste 14 Noroeste 0 -- -- 87
2021-02-21 21:00:00 9 5 Noroeste 13 Oeste 0 -- -- 84
2021-02-21 20:00:00 10 9 Oeste 20 Noroeste 0 -- -- 79
2021-02-21 19:00:00 11.3 18 Noroeste 35 Noroeste 0 -- -- 68
2021-02-21 18:00:00 12.7 26 Noroeste 37 Noroeste 0 -- -- 67
2021-02-21 17:00:00 12.9 22 Noroeste 32 Noroeste 0 -- -- 62
2021-02-21 16:00:00 13.2 23 Noroeste 37 Noroeste 0 -- -- 63
2021-02-21 15:00:00 12.2 22 Noroeste 34 Noroeste 0 -- -- 67
2021-02-21 14:00:00 11.4 24 Noroeste 33 Norte 0 -- -- 72
2021-02-21 13:00:00 10.1 14 Noroeste 21 Noroeste 0 -- -- 83
2021-02-21 12:00:00 9.3 13 Noroeste 24 Noroeste 0 -- -- 87
2021-02-21 11:00:00 8.7 0 Calma 9 Nordeste 0 -- -- 91
2021-02-21 10:00:00 8.4 5 Norte 12 Norte 0.6 -- -- 96
2021-02-21 09:00:00 8.4 6 Norte 12 Norte 1.4 -- -- 96
2021-02-21 08:00:00 8.9 8 Noroeste 12 Noroeste 2.6 -- -- 96
2021-02-21 07:00:00 9.1 8 Noroeste 16 Oeste 0.8 -- -- 95
2021-02-21 06:00:00 9.5 10 Oeste 32 Oeste 0 -- -- 92
2021-02-21 05:00:00 10.2 20 Oeste 41 Sudoeste 0.2 -- -- 92
2021-02-21 04:00:00 12 34 Sudoeste 69 Sur 0 -- -- 87
2021-02-21 03:00:00 13.3 40 Sur 64 Sur 0 -- -- 76
2021-02-21 02:00:00 14.9 39 Sur 57 Sur 0 -- -- 60
2021-02-21 01:00:00 14.6 33 Sur 47 Sur 0 -- -- 59
2021-02-21 00:00:00 14.4 22 Sur 42 Sur 0 -- -- 61
2021-02-20 23:00:00 14.7 28 Sur 44 Sur 0 -- -- 62
2021-02-20 22:00:00 14.7 30 Sur 38 Sur 0 -- -- 65
2021-02-20 21:00:00 14.4 25 Sur 37 Sur 0 -- -- 61
2021-02-20 20:00:00 15 29 Sur 44 Sur 0 -- -- 57
2021-02-20 19:00:00 15.2 27 Sur 51 Sur 0 -- -- 54
2021-02-20 18:00:00 16 33 Sur 51 Sur 0 -- -- 54
2021-02-20 17:00:00 16.7 33 Sur 48 Sur 0 -- -- 53
2021-02-20 16:00:00 17.4 36 Sur 57 Sur 0 -- -- 52
2021-02-20 15:00:00 17 35 Sur 57 Sur 0 -- -- 61
2021-02-20 14:00:00 15.8 39 Sur 55 Sur 0 -- -- 66
2021-02-20 13:00:00 15.9 36 Sur 51 Sur 0 -- -- 71
2021-02-20 12:00:00 15 35 Sur 51 Sur 0 -- -- 74
2021-02-20 11:00:00 14 30 Sur 48 Sur 0 -- -- 81
2021-02-20 10:00:00 13.2 31 Sur 45 Sur 0 -- -- 83
2021-02-20 09:00:00 12 25 Sur 40 Sur 0 -- -- 89
2021-02-20 08:00:00 12 14 Sur 27 Sur 0 -- -- 90
2021-02-20 07:00:00 11.4 6 Sudoeste 22 Sur 0 -- -- 90
2021-02-20 06:00:00 11 18 Sur 31 Sur 0 -- -- 90
2021-02-20 05:00:00 10.5 17 Sur 25 Sudoeste 0 -- -- 93
2021-02-20 04:00:00 11 16 Sur 30 Sur 0 -- -- 91
2021-02-20 03:00:00 11.2 23 Sur 36 Sur 0 -- -- 91
2021-02-20 02:00:00 10.7 10 Sur 18 Sur 0 -- -- 92
2021-02-20 01:00:00 10.7 14 Sur 21 Sur 0 -- -- 94
2021-02-20 00:00:00 10.2 8 Sur 20 Sur 0 -- -- 93
2021-02-19 23:00:00 10.9 11 Sur 17 Sur 0 -- -- 91
2021-02-19 22:00:00 11.5 13 Sur 31 Sur 0 -- -- 90
2021-02-19 21:00:00 12.1 19 Sur 28 Sur 0 -- -- 88
2021-02-19 20:00:00 13 11 Sur 27 Sur 0 -- -- 84
2021-02-19 19:00:00 14.2 21 Sur 35 Sur 0 -- -- 81
2021-02-19 18:00:00 15.6 21 Sur 34 Sur 0 -- -- 75
2021-02-19 17:00:00 16 23 Sur 33 Sur 0 -- -- 72
2021-02-19 16:00:00 15.9 22 Sur 33 Sudoeste 0 -- -- 73
2021-02-19 15:00:00 15.9 23 Sudoeste 36 Sudoeste 0 -- -- 72
2021-02-19 14:00:00 15.6 21 Sudoeste 35 Sudoeste 0 -- -- 75
2021-02-19 13:00:00 15.2 28 Sudoeste 37 Sur 0 -- -- 75
2021-02-19 12:00:00 14 24 Sur 33 Sur 0 -- -- 81
2021-02-19 11:00:00 11.9 20 Sur 28 Sur 0 -- -- 86
2021-02-19 10:00:00 11.1 17 Sur 26 Sur 0 -- -- 91
2021-02-19 09:00:00 10.2 10 Sur 15 Sur 0 -- -- 94
2021-02-19 08:00:00 10.4 9 Sudoeste 18 Sudoeste 0 -- -- 97
2021-02-19 07:00:00 10.1 3 Sur 11 Sur 0 -- -- 100
2021-02-19 06:00:00 9.8 6 Sur 14 Sur 0 -- -- 99
2021-02-19 05:00:00 8.7 5 Sur 9 Sur 0 -- -- 98
2021-02-19 04:00:00 9.4 4 Sur 4 Sur 0 -- -- 97
2021-02-19 03:00:00 9.9 3 Sur 6 Sur 0 -- -- 97
2021-02-19 02:00:00 10.4 6 Sudeste 8 Sudeste 0 -- -- 96
2021-02-19 01:00:00 11.1 5 Sur 17 Sur 0 -- -- 95
2021-02-19 00:00:00 11.7 4 Sur 12 Sur 0 -- -- 93
2021-02-18 23:00:00 12.3 6 Sur 15 Sur 0 -- -- 90
2021-02-18 22:00:00 13.4 14 Sudoeste 21 Sudoeste 0 -- -- 87
2021-02-18 21:00:00 14 13 Sudoeste 18 Sudoeste 0 -- -- 83
2021-02-18 20:00:00 14.3 3 Noroeste 9 Noroeste 0 -- -- 70
2021-02-18 19:00:00 16.2 7 Sudoeste 14 Sudoeste 0 -- -- 60
2021-02-18 18:00:00 17.8 12 Sudoeste 22 Sudoeste 0 -- -- 53
2021-02-18 17:00:00 18.6 15 Sudoeste 23 Sudoeste 0 -- -- 48
2021-02-18 16:00:00 18.1 10 Sudoeste 15 Sudoeste 0 -- -- 61
2021-02-18 15:00:00 16.7 6 Oeste 12 Oeste 0 -- -- 76
2021-02-18 14:00:00 15.5 5 Oeste 12 Sudoeste 0 -- -- 80
2021-02-18 13:00:00 13.8 9 Sur 14 Sur 0 -- -- 86
2021-02-18 12:00:00 11.2 7 Sur 12 Sur 0 -- -- 97
2021-02-18 11:00:00 9.8 5 Sudoeste 10 Sudoeste 0 -- -- 99
2021-02-18 10:00:00 9.8 5 Sudoeste 12 Sur 0 -- -- 99
2021-02-18 09:00:00 9.6 8 Sur 11 Sur 0 -- -- 99
2021-02-18 08:00:00 9.5 7 Sur 10 Sur 0 -- -- 99
2021-02-18 07:00:00 9.9 7 Sur 10 Sur 0 -- -- 99
2021-02-18 06:00:00 10.2 6 Sur 10 Sur 0 -- -- 99
2021-02-18 05:00:00 10.1 2 Sudeste 8 Sudeste 0 -- -- 99
2021-02-18 04:00:00 10.2 6 Sudeste 9 Sudeste 0 -- -- 98
2021-02-18 03:00:00 9.9 4 Norte 15 Noroeste 0 -- -- 98
2021-02-18 02:00:00 10 5 Noroeste 6 Noroeste 0 -- -- 96
2021-02-18 01:00:00 10.6 6 Sur 9 Sur 0 -- -- 95
2021-02-18 00:00:00 11.3 3 Sur 8 Sur 0 -- -- 90
2021-02-17 23:00:00 11.6 7 Sudeste 8 Sudeste 0 -- -- 89
2021-02-17 22:00:00 12.4 3 Sudeste 7 Noroeste 0 -- -- 87
2021-02-17 21:00:00 13.5 0 Calma 5 Sur 0 -- -- 86
2021-02-17 20:00:00 14.4 4 Sur 12 Oeste 0 -- -- 83
2021-02-17 19:00:00 15.6 7 Oeste 11 Sudoeste 0 -- -- 84
2021-02-17 18:00:00 17.1 9 Oeste 14 Oeste 0 -- -- 79
2021-02-17 17:00:00 17.2 9 Oeste 13 Sudoeste 0 -- -- 75
2021-02-17 16:00:00 17.2 10 Oeste 15 Sudoeste 0 -- -- 77
2021-02-17 15:00:00 16.3 11 Oeste 13 Oeste 0 -- -- 77
2021-02-17 14:00:00 15.5 8 Sudoeste 11 Sudoeste 0 -- -- 78
2021-02-17 13:00:00 13.3 5 Oeste 10 Noroeste 0 -- -- 93
2021-02-17 12:00:00 11 7 Norte 11 Noroeste 0 -- -- 100
2021-02-17 11:00:00 9.3 4 Norte 6 Norte 0 -- -- 100
2021-02-17 10:00:00 7.7 0 Calma 7 Norte 0 -- -- 100
2021-02-17 09:00:00 7.1 0 Calma 5 Norte 0 -- -- 100
2021-02-17 08:00:00 6.3 0 Calma 6 Sudeste 0 -- -- 99
2021-02-17 07:00:00 7 0 Calma 6 Nordeste 0 -- -- 99
2021-02-17 06:00:00 7.6 0 Calma 5 Norte 0 -- -- 97
2021-02-17 05:00:00 8.1 0 Calma 5 Este 0 -- -- 97
2021-02-17 04:00:00 8.9 3 Nordeste 5 Norte 0 -- -- 97
2021-02-17 03:00:00 9.3 0 Calma 5 Sur 0 -- -- 94
2021-02-17 02:00:00 10.4 2 Sur 5 Sudeste 0 -- -- 91
2021-02-17 01:00:00 11.1 3 Sudeste 12 Sudeste 0 -- -- 90
2021-02-17 00:00:00 11.2 8 Sudeste 10 Sudeste 0 -- -- 91
2021-02-16 23:00:00 12 5 Sudeste 9 Sudeste 0 -- -- 88
2021-02-16 22:00:00 12.8 3 Sudeste 8 Sudeste 0 -- -- 86
2021-02-16 21:00:00 13.4 3 Sur 9 Noroeste 0 -- -- 87
2021-02-16 20:00:00 15.1 0 Calma 3 Oeste 0 -- -- 77
2021-02-16 19:00:00 16.2 0 Calma 8 Sur 0 -- -- 72
2021-02-16 18:00:00 17.2 5 Sudoeste 15 Sudoeste 0 -- -- 71
2021-02-16 17:00:00 17.7 9 Sudoeste 14 Sudoeste 0 -- -- 67
2021-02-16 16:00:00 17.1 9 Oeste 13 Oeste 0 -- -- 66
2021-02-16 15:00:00 16.7 8 Oeste 14 Oeste 0 -- -- 65
2021-02-16 14:00:00 15.9 5 Oeste 10 Sur 0 -- -- 67
2021-02-16 13:00:00 14.7 4 Sur 10 Sur 0 -- -- 67
2021-02-16 12:00:00 13.1 3 Sudoeste 6 Oeste 0 -- -- 76
2021-02-16 11:00:00 11.2 4 Norte 13 Norte 0 -- -- 82
2021-02-16 10:00:00 9.5 4 Nordeste 9 Nordeste 0 -- -- 97
2021-02-16 09:00:00 6.7 5 Norte 8 Sudeste 0 -- -- 99
2021-02-16 08:00:00 6.3 0 Calma 6 Este 0 -- -- 98
2021-02-16 07:00:00 6.8 0 Calma 10 Noroeste 0 -- -- 97
2021-02-16 06:00:00 7.6 0 Calma 5 Este 0 -- -- 97
2021-02-16 05:00:00 7.8 2 Nordeste 6 Este 0 -- -- 96
2021-02-16 04:00:00 9 5 Este 6 Este 0 -- -- 92
2021-02-16 03:00:00 10 3 Sudeste 9 Sur 0 -- -- 91
2021-02-16 02:00:00 10.5 6 Sur 12 Sur 0 -- -- 90
2021-02-16 01:00:00 10.9 8 Sur 15 Sudeste 0 -- -- 89
2021-02-16 00:00:00 11.9 7 Sur 17 Sur 0 -- -- 86
2021-02-15 23:00:00 12.4 10 Sur 15 Sur 0 -- -- 82
2021-02-15 22:00:00 13.5 6 Sur 15 Sur 0 -- -- 78
2021-02-15 21:00:00 14.9 11 Sur 15 Sur 0 -- -- 71
2021-02-15 20:00:00 15.8 10 Sur 17 Sudeste 0 -- -- 66
2021-02-15 19:00:00 17.5 13 Sur 19 Sudoeste 0 -- -- 61
2021-02-15 18:00:00 20.1 13 Sur 19 Sur 0 -- -- 55
2021-02-15 17:00:00 21 13 Sur 23 Sur 0 -- -- 52
2021-02-15 16:00:00 20.8 16 Sur 22 Sur 0 -- -- 50
2021-02-15 15:00:00 20.1 13 Sur 21 Sur 0 -- -- 53
2021-02-15 14:00:00 18.3 5 Sur 12 Sudeste 0 -- -- 60
2021-02-15 13:00:00 15.4 5 Oeste 10 Sudoeste 0 -- -- 74
2021-02-15 12:00:00 13.6 4 Norte 9 Norte 0 -- -- 79
2021-02-15 11:00:00 10.8 4 Norte 6 Noroeste 0 -- -- 87
2021-02-15 10:00:00 8 0 Calma 4 Sudoeste 0 -- -- 95
2021-02-15 09:00:00 5.9 2 Sudoeste 15 Nordeste 0 -- -- 96
2021-02-15 08:00:00 5.9 5 Nordeste 12 Nordeste 0 -- -- 97
2021-02-15 07:00:00 6.4 0 Calma 4 Nordeste 0 -- -- 97
2021-02-15 06:00:00 6.9 0 Calma 3 Este 0 -- -- 97
2021-02-15 05:00:00 7.1 4 Noroeste 5 Noroeste 0 -- -- 97
2021-02-15 04:00:00 7.9 0 Calma 3 Oeste 0 -- -- 95
2021-02-15 03:00:00 8.9 0 Calma 4 Oeste 0 -- -- 94
2021-02-15 02:00:00 9.7 0 Calma 4 Noroeste 0 -- -- 87
2021-02-15 01:00:00 10.4 4 Noroeste 6 Sudeste 0 -- -- 89
2021-02-15 00:00:00 12.1 6 Sudeste 9 Sudeste 0 -- -- 81
2021-02-14 23:00:00 12.4 5 Sudeste 7 Sur 0 -- -- 89
2021-02-14 22:00:00 13.2 0 Calma 5 Sudeste 0 -- -- 86
2021-02-14 21:00:00 14.4 3 Sudeste 5 Sur 0 -- -- 81
2021-02-14 20:00:00 15.5 3 Norte 13 Nordeste 0 -- -- 77
2021-02-14 19:00:00 17.2 10 Nordeste 15 Norte 0 -- -- 74
2021-02-14 18:00:00 19.3 11 Norte 17 Norte 0 -- -- 64
2021-02-14 17:00:00 20 9 Norte 16 Nordeste 0 -- -- 62
2021-02-14 16:00:00 19.9 8 Norte 13 Norte 0 -- -- 60
2021-02-14 15:00:00 18.8 8 Norte 13 Norte 0 -- -- 63
2021-02-14 14:00:00 17.1 7 Nordeste 17 Norte 0 -- -- 70
2021-02-14 13:00:00 14.3 10 Norte 14 Norte 0 -- -- 79
2021-02-14 12:00:00 12.5 8 Nordeste 13 Norte 0 -- -- 83
2021-02-14 11:00:00 10.3 6 Norte 12 Norte 0 -- -- 91
2021-02-14 10:00:00 7.8 3 Norte 13 Nordeste 0 -- -- 94
2021-02-14 09:00:00 5.8 6 Nordeste 11 Nordeste 0 -- -- 98
2021-02-14 08:00:00 5.2 0 Calma 5 Este 0 -- -- 97
2021-02-14 07:00:00 6 3 Nordeste 6 Nordeste 0 -- -- 98
2021-02-14 06:00:00 6 3 Nordeste 8 Nordeste 0 -- -- 98
2021-02-14 05:00:00 6.6 2 Este 12 Nordeste 0 -- -- 97
2021-02-14 04:00:00 6.5 3 Norte 7 Nordeste 0 -- -- 95
2021-02-14 03:00:00 6.8 3 Este 7 Sudeste 0 -- -- 89
2021-02-14 02:00:00 7.6 3 Este 7 Este 0 -- -- 87
2021-02-14 01:00:00 7.7 4 Este 6 Este 0 -- -- 91
2021-02-14 00:00:00 9.5 0 Calma 5 Norte 0 -- -- 89
2021-02-13 23:00:00 10.3 0 Calma 4 Norte 0 -- -- 81
2021-02-13 22:00:00 10.4 3 Norte 9 Este 0 -- -- 85
2021-02-13 21:00:00 12.5 4 Sudeste 16 Este 0 -- -- 74
2021-02-13 20:00:00 14.3 11 Nordeste 18 Nordeste 0 -- -- 64
2021-02-13 19:00:00 15.2 8 Nordeste 10 Nordeste 0 -- -- 66
2021-02-13 18:00:00 17.3 5 Norte 10 Oeste 0 -- -- 52
2021-02-13 17:00:00 17.3 8 Oeste 13 Norte 0 -- -- 56
2021-02-13 16:00:00 16.8 5 Oeste 13 Nordeste 0 -- -- 60
2021-02-13 15:00:00 15.4 7 Norte 16 Noroeste 0 -- -- 64
2021-02-13 14:00:00 13.7 8 Oeste 11 Oeste 0 -- -- 83
2021-02-13 13:00:00 12.7 7 Nordeste 16 Norte 0 -- -- 90
2021-02-13 08:00:00 -- -- -- -- -- -- -- -- --
2021-02-13 07:00:00 -- -- -- -- -- -- -- -- --
2021-02-13 06:00:00 -- -- -- -- -- -- -- -- --
2021-02-13 05:00:00 7.1 6 Sudeste 8 Sudeste 0 -- -- 97
2021-02-13 04:00:00 7.9 3 Sudeste 7 Sudeste 0 -- -- 96
2021-02-13 03:00:00 8.3 5 Sudeste 6 Sudeste 0 -- -- 95
2021-02-13 02:00:00 8.5 4 Sudeste 7 Sudeste 0 -- -- 95
2021-02-13 01:00:00 9 0 Calma -- -- 0 -- -- 95
2021-02-13 00:00:00 9.2 0 Calma 3 Sur 0 -- -- 91
2021-02-12 23:00:00 10.4 0 Calma 5 Este 0 -- -- 88
2021-02-12 22:00:00 11.5 0 Calma 4 Norte 0 -- -- 86
2021-02-12 21:00:00 12.2 0 Calma 8 Norte 0 -- -- 84
2021-02-12 20:00:00 13.5 8 Norte 10 Norte 0 -- -- 75
2021-02-12 19:00:00 15 5 Norte 15 Noroeste 0 -- -- 70
2021-02-12 18:00:00 17 9 Noroeste 18 Noroeste 0 -- -- 63
2021-02-12 17:00:00 17.7 9 Noroeste 16 Oeste 0 -- -- 62
2021-02-12 16:00:00 17.4 5 Oeste 14 Oeste 0 -- -- 69
2021-02-12 15:00:00 16.8 7 Oeste 16 Oeste 0 -- -- 70
2021-02-12 14:00:00 15.8 6 Oeste 13 Oeste 0 -- -- 74
2021-02-12 13:00:00 14.8 6 Noroeste 18 Noroeste 0 -- -- 79
2021-02-12 12:00:00 13.2 13 Oeste 22 Oeste 0 -- -- 88
2021-02-12 11:00:00 12.1 8 Norte 24 Noroeste 0 -- -- 94
2021-02-12 10:00:00 11 6 Noroeste 11 Noroeste 0 -- -- 99
2021-02-12 09:00:00 9.7 5 Norte 12 Noroeste 0 -- -- 99
2021-02-12 08:00:00 9.9 8 Noroeste 12 Noroeste 0 -- -- 98
2021-02-12 07:00:00 10.7 6 Noroeste 9 Noroeste 0 -- -- 97
2021-02-12 06:00:00 11.7 4 Oeste 19 Noroeste 0 -- -- 95
2021-02-12 05:00:00 12.6 12 Noroeste 25 Noroeste 0 -- -- 96
2021-02-12 04:00:00 13.3 17 Oeste 27 Oeste 1 -- -- 97
2021-02-12 03:00:00 13.4 15 Sudoeste 23 Sudoeste 0.2 -- -- 99
2021-02-12 02:00:00 13.5 13 Sudoeste 27 Sudoeste 0.2 -- -- 99
2021-02-12 01:00:00 13.6 19 Sudoeste 26 Sudoeste 0 -- -- 99
2021-02-12 00:00:00 13.5 14 Sudoeste 20 Sudoeste 0 -- -- 98
2021-02-11 23:00:00 13.2 6 Sudoeste 12 Sur 0 -- -- 98
2021-02-11 22:00:00 13.1 9 Sur 13 Sur 0 -- -- 98
2021-02-11 21:00:00 13.6 8 Sudoeste 13 Sudoeste 0 -- -- 97
2021-02-11 20:00:00 13.8 8 Sudoeste 30 Oeste 0.2 -- -- 97
2021-02-11 19:00:00 15.1 12 Sudoeste 23 Sur 0 -- -- 93
2021-02-11 18:00:00 15.4 6 Sur 10 Oeste 0 -- -- 91
2021-02-11 17:00:00 15.3 10 Oeste 17 Oeste 0 -- -- 91
2021-02-11 16:00:00 15.7 11 Sudoeste 22 Sudoeste 0 -- -- 89
2021-02-11 15:00:00 15.5 14 Sudoeste 22 Sudoeste 0 -- -- 88
2021-02-11 14:00:00 14.5 14 Sudoeste 26 Sudoeste 0 -- -- 95
2021-02-11 13:00:00 14.6 15 Sudoeste 23 Sudoeste 0 -- -- 94
2021-02-11 12:00:00 14.6 10 Sur 18 Sur 0 -- -- 95
2021-02-11 11:00:00 13.8 11 Sudoeste 16 Sudoeste 0 -- -- 98
2021-02-11 10:00:00 13.2 8 Sudoeste 14 Sudoeste 0 -- -- 100
2021-02-11 09:00:00 13 10 Sudoeste 20 Sur 0 -- -- 100
2021-02-11 08:00:00 13 11 Sur 18 Sur 0 -- -- 100
2021-02-11 07:00:00 12.9 11 Sudoeste 15 Sudoeste 0 -- -- 100
2021-02-11 06:00:00 13 11 Sudoeste 15 Sudoeste 0 -- -- 100
2021-02-11 05:00:00 13 7 Sur 10 Sur 0 -- -- 100
2021-02-11 04:00:00 13.1 6 Sur 8 Sur 0 -- -- 100
2021-02-11 03:00:00 13.2 3 Sur 11 Sudoeste 0 -- -- 99
2021-02-11 02:00:00 13.2 7 Oeste 17 Oeste 0 -- -- 99
2021-02-11 01:00:00 13.4 10 Sudoeste 15 Sudoeste 0 -- -- 100
2021-02-11 00:00:00 13.6 9 Sudoeste 16 Sudoeste 0 -- -- 100
2021-02-10 23:00:00 13.6 9 Sudoeste 16 Oeste 0 -- -- 99
2021-02-10 22:00:00 13.9 10 Oeste 19 Sudoeste 0 -- -- 98
2021-02-10 21:00:00 14.3 9 Sudoeste 23 Oeste 0 -- -- 98
2021-02-10 20:00:00 14.5 10 Oeste 17 Oeste 0.2 -- -- 99
2021-02-10 19:00:00 14.6 10 Oeste 17 Oeste 0 -- -- 99
2021-02-10 18:00:00 14.6 0 Calma 5 Sudeste 0.2 -- -- 99
2021-02-10 17:00:00 14.3 2 Sur 5 Este 0.2 -- -- 97
2021-02-10 16:00:00 14.1 3 Sudeste 9 Sudoeste 0 -- -- 97
2021-02-10 15:00:00 13.8 7 Sudoeste 16 Sudoeste 0 -- -- 98
2021-02-10 14:00:00 13 5 Oeste 13 Oeste 0 -- -- 100
2021-02-10 13:00:00 12.4 9 Sudoeste 14 Sudoeste 0 -- -- 100
2021-02-10 12:00:00 12.2 8 Oeste 12 Oeste 0 -- -- 100
2021-02-10 11:00:00 12.1 6 Oeste 10 Oeste 0.2 -- -- 100
2021-02-10 10:00:00 11.8 4 Sudoeste 13 Oeste 0 -- -- 100
2021-02-10 09:00:00 11.6 10 Oeste 15 Oeste 0.4 -- -- 100
2021-02-10 08:00:00 12 4 Oeste 11 Norte 1.4 -- -- 100
2021-02-10 07:00:00 12 7 Oeste 14 Sudoeste 1.4 -- -- 100
2021-02-10 06:00:00 11.7 12 Sudoeste 28 Sudoeste 2.4 -- -- 100
2021-02-10 05:00:00 11.9 19 Sudoeste 33 Oeste 0.6 -- -- 99
2021-02-10 04:00:00 12.2 20 Oeste 31 Oeste 0 -- -- 95
2021-02-10 03:00:00 11.5 11 Oeste 31 Sudoeste 1.6 -- -- 97
2021-02-10 02:00:00 11.9 20 Sudoeste 27 Sudoeste 0 -- -- 94
2021-02-10 01:00:00 10.9 14 Sudoeste 33 Oeste 0 -- -- 94
2021-02-10 00:00:00 11.3 19 Sudoeste 30 Sudoeste 0 -- -- 95
2021-02-09 23:00:00 11.7 21 Sudoeste 33 Sudoeste 0 -- -- 93
2021-02-09 22:00:00 11.7 25 Oeste 38 Oeste 0 -- -- 90
2021-02-09 21:00:00 12 17 Oeste 34 Oeste 0 -- -- 89
2021-02-09 20:00:00 11.5 16 Oeste 33 Oeste 0 -- -- 93
2021-02-09 19:00:00 12.1 18 Oeste 37 Oeste 0.2 -- -- 87
2021-02-09 18:00:00 13.3 23 Oeste 40 Noroeste 0 -- -- 88
2021-02-09 17:00:00 13.6 23 Oeste 42 Oeste 0 -- -- 88
2021-02-09 16:00:00 13.1 22 Oeste 40 Oeste 0 -- -- 93
2021-02-09 15:00:00 11.9 17 Oeste 34 Oeste 1 -- -- 97
2021-02-09 14:00:00 10.7 30 Oeste 59 Oeste 3.6 -- -- 95
2021-02-09 13:00:00 12.2 32 Sudoeste 47 Sudoeste 1 -- -- 98
2021-02-09 12:00:00 11.7 37 Sudoeste 55 Sudoeste 3.2 -- -- 98
2021-02-09 11:00:00 11.7 33 Sudoeste 48 Sudoeste 1 -- -- 96
2021-02-09 10:00:00 11.3 32 Sudoeste 49 Sudoeste 0 -- -- 96
2021-02-09 09:00:00 10.8 32 Sudoeste 50 Sudoeste 0 -- -- 97
2021-02-09 08:00:00 11.1 24 Sudoeste 40 Sudoeste 0 -- -- 91
2021-02-09 07:00:00 11.3 32 Sudoeste 46 Sudoeste 0 -- -- 91
2021-02-09 06:00:00 10.9 23 Sur 32 Sur 0 -- -- 93
2021-02-09 05:00:00 10.7 23 Sur 36 Sudoeste 0 -- -- 94
2021-02-09 04:00:00 10.6 20 Sudoeste 32 Sur 0 -- -- 96
2021-02-09 03:00:00 10.7 24 Sudoeste 33 Sudoeste 0 -- -- 96
2021-02-09 02:00:00 10.9 23 Sudoeste 32 Sudoeste 0.4 -- -- 97
2021-02-09 01:00:00 10.6 18 Sudoeste 29 Sudoeste 0.4 -- -- 99
2021-02-09 00:00:00 10.3 13 Sudoeste 23 Sudoeste 0 -- -- 96
2021-02-08 23:00:00 10.2 16 Sudoeste 23 Sur 0 -- -- 92
2021-02-08 22:00:00 10.7 10 Sudoeste 22 Oeste 0 -- -- 88
2021-02-08 21:00:00 11.3 15 Oeste 26 Oeste 0 -- -- 84
2021-02-08 20:00:00 12 17 Oeste 27 Oeste 0 -- -- 84
2021-02-08 19:00:00 12.8 11 Oeste 25 Noroeste 0 -- -- 77
2021-02-08 18:00:00 13.5 14 Noroeste 37 Noroeste 0 -- -- 67
2021-02-08 17:00:00 14.2 22 Noroeste 40 Oeste 0 -- -- 69
2021-02-08 16:00:00 14.6 22 Oeste 46 Oeste 0 -- -- 68
2021-02-08 15:00:00 14.4 24 Oeste 55 Oeste 0 -- -- 67
2021-02-08 14:00:00 14 31 Oeste 49 Noroeste 0 -- -- 71
2021-02-08 13:00:00 13.7 27 Oeste 47 Oeste 0 -- -- 75
2021-02-08 12:00:00 12.3 19 Oeste 38 Oeste 0.6 -- -- 86
2021-02-08 11:00:00 10.1 16 Noroeste 27 Oeste 1 -- -- 92
2021-02-08 10:00:00 10.5 17 Oeste 27 Oeste 0 -- -- 91
2021-02-08 09:00:00 10 14 Oeste 26 Oeste 0 -- -- 93
2021-02-08 08:00:00 9.6 11 Oeste 24 Oeste 0 -- -- 96
2021-02-08 07:00:00 9.8 14 Oeste 25 Sudoeste 0 -- -- 95
2021-02-08 06:00:00 9.9 13 Oeste 21 Noroeste 0 -- -- 96
2021-02-08 05:00:00 10.4 14 Oeste 29 Noroeste 0 -- -- 94
2021-02-08 04:00:00 10.5 18 Noroeste 49 Noroeste 1.6 -- -- 93
2021-02-08 03:00:00 11.8 25 Sudoeste 52 Sudoeste 2.2 -- -- 99
2021-02-08 02:00:00 11.2 31 Sudoeste 49 Sudoeste 0.8 -- -- 99
2021-02-08 01:00:00 10.9 30 Sudoeste 45 Sur 0 -- -- 98
2021-02-08 00:00:00 10.5 29 Sur 42 Sudoeste 0 -- -- 98
2021-02-07 23:00:00 10.3 27 Sur 39 Sur 0.2 -- -- 98
2021-02-07 22:00:00 10.4 25 Sudoeste 37 Sudoeste 0 -- -- 95
2021-02-07 21:00:00 10.4 20 Sudoeste 28 Sur 0 -- -- 93
2021-02-07 20:00:00 10.6 14 Sudoeste 24 Sudoeste 0 -- -- 90
2021-02-07 19:00:00 10.4 14 Sudoeste 31 Oeste 0 -- -- 93
2021-02-07 18:00:00 11.1 13 Sudoeste 30 Oeste 0 -- -- 85
2021-02-07 17:00:00 11.1 13 Oeste 30 Oeste 0 -- -- 80
2021-02-07 16:00:00 11.1 19 Oeste 28 Oeste 0 -- -- 77
2021-02-07 15:00:00 11 14 Noroeste 32 Noroeste 0 -- -- 73
2021-02-07 14:00:00 11.3 21 Noroeste 37 Noroeste 0 -- -- 69
2021-02-07 13:00:00 10.2 18 Noroeste 30 Noroeste 0 -- -- 73
2021-02-07 12:00:00 9.9 17 Noroeste 27 Oeste 0 -- -- 77
2021-02-07 11:00:00 8.6 15 Noroeste 22 Noroeste 0 -- -- 79
2021-02-07 10:00:00 7.3 5 Oeste 10 Noroeste 0 -- -- 85
2021-02-07 09:00:00 5.5 4 Noroeste 9 Oeste 0 -- -- 91
2021-02-07 08:00:00 5.5 2 Norte 15 Norte 0 -- -- 90
2021-02-07 07:00:00 5.6 8 Noroeste 12 Noroeste 0 -- -- 91
2021-02-07 06:00:00 6.1 4 Norte 9 Noroeste 0 -- -- 93
2021-02-07 05:00:00 6.9 9 Noroeste 15 Noroeste 0 -- -- 94
2021-02-07 04:00:00 7.6 12 Noroeste 22 Noroeste 0 -- -- 93
2021-02-07 03:00:00 8.3 15 Noroeste 21 Noroeste 0 -- -- 94
2021-02-07 02:00:00 9.1 7 Noroeste 16 Noroeste 0 -- -- 94
2021-02-07 01:00:00 9.7 12 Norte 21 Norte 0 -- -- 92
2021-02-07 00:00:00 9.7 8 Norte 15 Noroeste 0 -- -- 93
2021-02-06 23:00:00 9.5 7 Norte 15 Norte 0 -- -- 95
2021-02-06 22:00:00 9.6 6 Noroeste 17 Noroeste 0 -- -- 94
2021-02-06 21:00:00 9.7 9 Noroeste 21 Noroeste 0.2 -- -- 93
2021-02-06 20:00:00 10 10 Noroeste 15 Noroeste 0 -- -- 92
2021-02-06 19:00:00 10.1 8 Noroeste 21 Noroeste 0 -- -- 91
2021-02-06 18:00:00 10.3 10 Noroeste 19 Noroeste 0 -- -- 88
2021-02-06 17:00:00 10.2 11 Noroeste 20 Noroeste 0 -- -- 91
2021-02-06 16:00:00 10.2 11 Noroeste 25 Noroeste 0.2 -- -- 93
2021-02-06 15:00:00 10.4 15 Noroeste 32 Noroeste 0 -- -- 90
2021-02-06 14:00:00 11 21 Noroeste 32 Noroeste 0 -- -- 84
2021-02-06 13:00:00 11.4 13 Noroeste 29 Noroeste 0 -- -- 86
2021-02-06 12:00:00 10.8 14 Noroeste 26 Noroeste 0 -- -- 92
2021-02-06 11:00:00 10.1 9 Noroeste 16 Noroeste 0 -- -- 96
2021-02-06 10:00:00 9.7 12 Noroeste 18 Noroeste 0 -- -- 99
2021-02-06 09:00:00 9.4 8 Oeste 12 Oeste 0.8 -- -- 99
2021-02-06 08:00:00 9.4 7 Oeste 13 Oeste 0 -- -- 98
2021-02-06 07:00:00 9.1 8 Oeste 22 Noroeste 0 -- -- 99
2021-02-06 06:00:00 9.5 13 Oeste 19 Oeste 0 -- -- 99
2021-02-06 05:00:00 9.4 11 Oeste 16 Oeste 0.2 -- -- 99
2021-02-06 04:00:00 9.3 8 Sudoeste 16 Sudoeste 0 -- -- 98
2021-02-06 03:00:00 9.3 10 Oeste 22 Oeste 0.4 -- -- 98
2021-02-06 02:00:00 9.5 12 Oeste 19 Oeste 0 -- -- 98
2021-02-06 01:00:00 9.6 12 Oeste 18 Oeste 0.2 -- -- 98
2021-02-06 00:00:00 9.8 8 Oeste 14 Oeste 0 -- -- 98
2021-02-05 23:00:00 10.1 7 Oeste 15 Oeste 0 -- -- 98
2021-02-05 22:00:00 10.4 9 Sudoeste 18 Sudoeste 0 -- -- 98
2021-02-05 21:00:00 10.6 12 Sudoeste 25 Sudoeste 0 -- -- 99
2021-02-05 20:00:00 10.5 15 Sudoeste 29 Sudoeste 0 -- -- 99
2021-02-05 19:00:00 11.2 23 Sur 35 Sudeste 0 -- -- 97
2021-02-05 18:00:00 11.4 20 Este 33 Este 2.6 -- -- 100
2021-02-05 17:00:00 10.9 8 Nordeste 13 Norte 2.6 -- -- 100
2021-02-05 16:00:00 10.9 6 Norte 13 Norte 2.2 -- -- 99
2021-02-05 15:00:00 11 5 Nordeste 10 Nordeste 1.4 -- -- 98
2021-02-05 14:00:00 11.1 3 Norte 12 Este 0.8 -- -- 97
2021-02-05 13:00:00 10.9 5 Este 14 Sudeste 1.6 -- -- 97
2021-02-05 12:00:00 10.9 8 Sur 21 Sur 2.4 -- -- 98
2021-02-05 11:00:00 10.9 14 Sur 29 Sur 6.4 -- -- 98
2021-02-05 10:00:00 10.9 12 Sudeste 21 Sudeste 4.6 -- -- 100
2021-02-05 09:00:00 10.4 3 Sudeste 11 Oeste 2 -- -- 99
2021-02-05 08:00:00 10.5 5 Oeste 19 Este 0 -- -- 99
2021-02-05 07:00:00 10 19 Este 27 Este 2.8 -- -- 100
2021-02-05 06:00:00 9.8 5 Nordeste 30 Este 2 -- -- 100
2021-02-05 05:00:00 9.8 14 Nordeste 24 Nordeste 1.2 -- -- 100
2021-02-05 04:00:00 10 9 Nordeste 21 Norte 0 -- -- 100
2021-02-05 03:00:00 10.3 11 Nordeste 19 Nordeste 0 -- -- 100
2021-02-05 02:00:00 10.1 12 Nordeste 22 Nordeste 0 -- -- 100
2021-02-05 01:00:00 10.1 5 Noroeste 18 Nordeste 0.8 -- -- 100
2021-02-05 00:00:00 9.9 8 Este 19 Nordeste 0 -- -- 100
2021-02-04 23:00:00 10 13 Nordeste 25 Oeste 4 -- -- 100
2021-02-04 22:00:00 10.4 6 Noroeste 18 Nordeste 0.6 -- -- 99
2021-02-04 21:00:00 10.3 10 Nordeste 13 Nordeste 0.4 -- -- 99
2021-02-04 20:00:00 10.9 8 Noroeste 14 Oeste 0 -- -- 99
2021-02-04 19:00:00 11.2 8 Nordeste 12 Nordeste 0.2 -- -- 98
2021-02-04 18:00:00 11.7 4 Sudoeste 19 Este 0.4 -- -- 96
2021-02-04 17:00:00 11.8 12 Este 23 Este 0.2 -- -- 97
2021-02-04 16:00:00 11.4 7 Sudeste 16 Este 1.6 -- -- 98
2021-02-04 15:00:00 11.5 4 Este 24 Este 1 -- -- 97
2021-02-04 14:00:00 11.5 8 Nordeste 19 Este 0.8 -- -- 99
2021-02-04 13:00:00 10.7 11 Este 22 Nordeste 0.2 -- -- 100
2021-02-04 12:00:00 9.9 17 Nordeste 23 Nordeste 4.8 -- -- 100
2021-02-04 11:00:00 9.6 12 Norte 24 Norte 11.8 -- -- 100
2021-02-04 10:00:00 9.8 15 Norte 24 Norte 7.6 -- -- 100
2021-02-04 09:00:00 9.9 10 Nordeste 17 Nordeste 5.2 -- -- 100
2021-02-04 08:00:00 9.8 4 Nordeste 17 Sudeste 3 -- -- 99
2021-02-04 07:00:00 10.1 11 Este 19 Sudeste 0.2 -- -- 99
2021-02-04 06:00:00 10.5 10 Sudeste 18 Sudeste 0.6 -- -- 99
2021-02-04 05:00:00 10.7 7 Sudeste 16 Sudeste 0 -- -- 98
2021-02-04 04:00:00 10.7 8 Sudeste 17 Sur 0 -- -- 97
2021-02-04 03:00:00 11 9 Sudeste 18 Sudeste 0.2 -- -- 97
2021-02-04 02:00:00 11.5 9 Sur 17 Sur 0 -- -- 98
2021-02-04 01:00:00 11.6 9 Sur 16 Sur 0 -- -- 99
2021-02-04 00:00:00 11.6 7 Sur 14 Sudeste 0 -- -- 99
2021-02-03 23:00:00 11.5 8 Sur 13 Sudeste 0 -- -- 98
2021-02-03 22:00:00 11.5 8 Sur 18 Sudoeste 0.4 -- -- 97
2021-02-03 21:00:00 12.1 12 Sudoeste 22 Noroeste 1.2 -- -- 97
2021-02-03 20:00:00 12.7 14 Sudoeste 24 Sudoeste 0.4 -- -- 98
2021-02-03 19:00:00 13.2 18 Sudoeste 34 Sudoeste 0.4 -- -- 99
2021-02-03 18:00:00 13.4 24 Sudoeste 35 Sur 0.4 -- -- 98
2021-02-03 17:00:00 13.7 21 Sudoeste 31 Sudoeste 0.6 -- -- 97
2021-02-03 16:00:00 14.4 19 Sudoeste 30 Sudoeste 0 -- -- 95
2021-02-03 15:00:00 14.2 23 Sur 42 Sudoeste 0 -- -- 92
2021-02-03 14:00:00 14.5 25 Sudoeste 37 Sudoeste 0 -- -- 88
2021-02-03 13:00:00 14.1 27 Sur 39 Sudoeste 0 -- -- 92
2021-02-03 12:00:00 13.3 22 Sur 34 Sur 0 -- -- 93
2021-02-03 11:00:00 12.4 18 Sur 32 Sur 0.2 -- -- 96
2021-02-03 10:00:00 12.1 21 Sur 31 Sur 0 -- -- 96
2021-02-03 09:00:00 11.9 18 Sur 30 Sur 0 -- -- 93
2021-02-03 08:00:00 12.1 17 Sur 31 Sudoeste 0 -- -- 92
2021-02-03 07:00:00 12.6 19 Sudoeste 31 Sudoeste 0 -- -- 87
2021-02-03 06:00:00 12.4 13 Sur 25 Sur 0 -- -- 87
2021-02-03 05:00:00 12.4 17 Sur 25 Sur 0 -- -- 86
2021-02-03 04:00:00 12.6 18 Sur 31 Sur 0 -- -- 85
2021-02-03 03:00:00 12.4 14 Sur 22 Sur 0 -- -- 86
2021-02-03 02:00:00 12.6 17 Sur 25 Sur 0 -- -- 84
2021-02-03 01:00:00 12.4 16 Sur 23 Sur 0 -- -- 86
2021-02-03 00:00:00 12.6 11 Sudoeste 16 Sudoeste 0 -- -- 84
2021-02-02 23:00:00 12.6 7 Sudoeste 14 Sudoeste 0 -- -- 85
2021-02-02 22:00:00 13 10 Sudoeste 13 Sudoeste 0 -- -- 84
2021-02-02 21:00:00 13.1 8 Sudoeste 14 Oeste 0 -- -- 86
2021-02-02 20:00:00 13.6 10 Oeste 14 Oeste 0 -- -- 84
2021-02-02 19:00:00 13.9 8 Sudoeste 13 Sudoeste 0 -- -- 82
2021-02-02 18:00:00 14.5 10 Sudoeste 17 Sudoeste 0 -- -- 79
2021-02-02 17:00:00 14.7 10 Sudoeste 17 Sudoeste 0 -- -- 77
2021-02-02 16:00:00 14.8 14 Sudoeste 21 Sudoeste 0 -- -- 75
2021-02-02 15:00:00 15.2 14 Sudoeste 19 Sudoeste 0 -- -- 70
2021-02-02 14:00:00 15 16 Sudoeste 22 Sudoeste 0 -- -- 70
2021-02-02 13:00:00 14.5 13 Sudoeste 18 Sudoeste 0 -- -- 80
2021-02-02 12:00:00 13.7 12 Sudoeste 18 Sudoeste 0 -- -- 95
2021-02-02 11:00:00 13.1 8 Sur 13 Sudoeste 0 -- -- 99
2021-02-02 10:00:00 12.3 2 Sur 7 Sur 0 -- -- 100
2021-02-02 09:00:00 11.8 5 Sur 7 Sudeste 0 -- -- 100
2021-02-02 08:00:00 11.9 5 Sudoeste 19 Oeste 0.2 -- -- 100
2021-02-02 07:00:00 12.1 9 Sudoeste 14 Sudoeste 0.2 -- -- 100
2021-02-02 06:00:00 12.3 8 Sudoeste 11 Sur 0 -- -- 100
2021-02-02 05:00:00 12 6 Sur 11 Sur 0 -- -- 100
2021-02-02 04:00:00 11.9 8 Sur 11 Sur 0 -- -- 99
2021-02-02 03:00:00 12.6 7 Sudoeste 9 Sudoeste 0 -- -- 98
2021-02-02 02:00:00 12.6 4 Sudoeste 10 Sur 0 -- -- 98
2021-02-02 01:00:00 12.3 6 Sur 8 Sur 0 -- -- 96
2021-02-02 00:00:00 12.3 0 Calma -- -- 0 -- -- 94
2021-02-01 23:00:00 12.2 0 Calma 5 Sur 0 -- -- 94
2021-02-01 22:00:00 12 4 Noroeste 11 Oeste 0 -- -- 94
2021-02-01 21:00:00 12 5 Oeste 6 Oeste 0 -- -- 93
2021-02-01 20:00:00 12.7 3 Sudoeste 8 Sudoeste 0 -- -- 89
2021-02-01 19:00:00 13.8 6 Sudoeste 13 Sudoeste 0 -- -- 85
2021-02-01 18:00:00 14.9 9 Sudoeste 17 Oeste 0 -- -- 81
2021-02-01 17:00:00 15.1 10 Oeste 23 Oeste 0 -- -- 78
2021-02-01 16:00:00 15.1 16 Oeste 26 Oeste 0 -- -- 78
2021-02-01 15:00:00 15.1 14 Oeste 26 Oeste 0 -- -- 77
2021-02-01 14:00:00 14.8 14 Oeste 21 Oeste 0 -- -- 78
2021-02-01 13:00:00 14.4 12 Oeste 21 Oeste 0 -- -- 82
2021-02-01 12:00:00 13.8 12 Oeste 19 Oeste 0 -- -- 87
2021-02-01 11:00:00 13.3 9 Oeste 19 Oeste 0 -- -- 91
2021-02-01 10:00:00 12.8 16 Oeste 24 Oeste 0 -- -- 93
2021-02-01 09:00:00 12.3 10 Oeste 20 Oeste 0 -- -- 95
2021-02-01 08:00:00 12.4 9 Oeste 18 Oeste 0 -- -- 94
2021-02-01 07:00:00 12.6 13 Oeste 20 Oeste 0 -- -- 94
2021-02-01 06:00:00 12.6 4 Noroeste 18 Noroeste 0 -- -- 94
2021-02-01 05:00:00 13.1 15 Noroeste 24 Noroeste 0 -- -- 88
2021-02-01 04:00:00 13.3 11 Noroeste 19 Noroeste 0 -- -- 96
2021-02-01 03:00:00 13.6 10 Oeste 15 Oeste 0 -- -- 96
2021-02-01 02:00:00 13.9 6 Oeste 25 Noroeste 0 -- -- 97
2021-02-01 01:00:00 14.2 13 Noroeste 21 Oeste 0 -- -- 100
2021-02-01 00:00:00 13.9 5 Sudoeste 17 Oeste 0.8 -- -- 100